sensor_id;sensor_type;location;lat;lon;timestamp;temperature;humidity
7686;DHT22;3885;51.474;-2.576;2023-02-02T00:01:22;8.90;99.90
7686;DHT22;3885;51.474;-2.576;2023-02-02T00:08:44;9.00;99.90
7686;DHT22;3885;51.474;-2.576;2023-02-02T00:11:11;8.90;99.90
7686;DHT22;3885;51.474;-2.576;2023-02-02T00:13:38;9.00;99.90
7686;DHT22;3885;51.474;-2.576;2023-02-02T00:16:34;9.00;99.90
7686;DHT22;3885;51.474;-2.576;2023-02-02T00:19:02;8.90;99.90
7686;DHT22;3885;51.474;-2.576;2023-02-02T00:21:30;8.90;99.90
7686;DHT22;3885;51.474;-2.576;2023-02-02T00:23:57;8.90;99.90
7686;DHT22;3885;51.474;-2.576;2023-02-02T00:26:24;8.90;99.90
7686;DHT22;3885;51.474;-2.576;2023-02-02T00:28:51;9.00;99.90
7686;DHT22;3885;51.474;-2.576;2023-02-02T00:31:18;9.00;99.90
7686;DHT22;3885;51.474;-2.576;2023-02-02T00:36:14;8.90;99.90
7686;DHT22;3885;51.474;-2.576;2023-02-02T00:38:41;8.90;99.90
7686;DHT22;3885;51.474;-2.576;2023-02-02T00:41:08;8.80;99.90
7686;DHT22;3885;51.474;-2.576;2023-02-02T00:43:35;8.80;99.90
7686;DHT22;3885;51.474;-2.576;2023-02-02T00:46:03;8.80;99.90
7686;DHT22;3885;51.474;-2.576;2023-02-02T00:48:29;8.80;99.90
7686;DHT22;3885;51.474;-2.576;2023-02-02T00:50:57;8.70;99.90
7686;DHT22;3885;51.474;-2.576;2023-02-02T00:53:24;8.70;99.90
7686;DHT22;3885;51.474;-2.576;2023-02-02T00:55:51;8.70;99.90
7686;DHT22;3885;51.474;-2.576;2023-02-02T00:58:17;8.70;99.90
7686;DHT22;3885;51.474;-2.576;2023-02-02T01:03:12;8.60;99.90
7686;DHT22;3885;51.474;-2.576;2023-02-02T01:05:39;8.70;99.90
7686;DHT22;3885;51.474;-2.576;2023-02-02T01:08:07;8.70;99.90
7686;DHT22;3885;51.474;-2.576;2023-02-02T01:10:34;8.70;99.90
7686;DHT22;3885;51.474;-2.576;2023-02-02T01:13:01;8.70;99.90
7686;DHT22;3885;51.474;-2.576;2023-02-02T01:15:29;8.80;99.90
7686;DHT22;3885;51.474;-2.576;2023-02-02T01:17:56;8.80;99.90
7686;DHT22;3885;51.474;-2.576;2023-02-02T01:20:23;8.80;99.90
7686;DHT22;3885;51.474;-2.576;2023-02-02T01:22:50;8.80;99.90
7686;DHT22;3885;51.474;-2.576;2023-02-02T01:25:18;8.80;99.90
7686;DHT22;3885;51.474;-2.576;2023-02-02T01:27:45;8.80;99.90
7686;DHT22;3885;51.474;-2.576;2023-02-02T01:30:13;8.80;99.90
7686;DHT22;3885;51.474;-2.576;2023-02-02T01:32:40;8.80;99.90
7686;DHT22;3885;51.474;-2.576;2023-02-02T01:35:07;8.80;99.90
7686;DHT22;3885;51.474;-2.576;2023-02-02T01:37:34;8.80;99.90
7686;DHT22;3885;51.474;-2.576;2023-02-02T01:40:01;8.80;99.90
7686;DHT22;3885;51.474;-2.576;2023-02-02T01:42:30;8.80;99.90
7686;DHT22;3885;51.474;-2.576;2023-02-02T01:45:17;8.80;99.90
7686;DHT22;3885;51.474;-2.576;2023-02-02T01:47:47;8.90;99.90
7686;DHT22;3885;51.474;-2.576;2023-02-02T01:50:17;8.90;99.90
7686;DHT22;3885;51.474;-2.576;2023-02-02T01:52:48;8.90;99.90
7686;DHT22;3885;51.474;-2.576;2023-02-02T01:55:18;8.90;99.90
7686;DHT22;3885;51.474;-2.576;2023-02-02T01:57:53;8.90;99.90
7686;DHT22;3885;51.474;-2.576;2023-02-02T02:00:20;9.00;99.90
7686;DHT22;3885;51.474;-2.576;2023-02-02T02:02:51;8.90;99.90
7686;DHT22;3885;51.474;-2.576;2023-02-02T02:05:24;8.90;99.90
7686;DHT22;3885;51.474;-2.576;2023-02-02T02:07:53;9.00;99.90
7686;DHT22;3885;51.474;-2.576;2023-02-02T02:10:22;9.00;99.90
7686;DHT22;3885;51.474;-2.576;2023-02-02T02:12:50;9.00;99.90
7686;DHT22;3885;51.474;-2.576;2023-02-02T02:15:19;9.00;99.90
7686;DHT22;3885;51.474;-2.576;2023-02-02T02:18:12;9.00;99.90
7686;DHT22;3885;51.474;-2.576;2023-02-02T02:27:46;9.00;99.90
7686;DHT22;3885;51.474;-2.576;2023-02-02T02:30:38;9.00;99.90
7686;DHT22;3885;51.474;-2.576;2023-02-02T02:35:44;9.00;99.90
7686;DHT22;3885;51.474;-2.576;2023-02-02T02:38:20;9.00;99.90
7686;DHT22;3885;51.474;-2.576;2023-02-02T02:40:52;9.00;99.90
7686;DHT22;3885;51.474;-2.576;2023-02-02T02:43:24;9.00;99.90
7686;DHT22;3885;51.474;-2.576;2023-02-02T02:45:53;9.00;99.90
7686;DHT22;3885;51.474;-2.576;2023-02-02T02:48:21;9.00;99.90
7686;DHT22;3885;51.474;-2.576;2023-02-02T02:50:48;9.00;99.90
7686;DHT22;3885;51.474;-2.576;2023-02-02T02:53:18;9.00;99.90
7686;DHT22;3885;51.474;-2.576;2023-02-02T02:55:48;9.00;99.90
7686;DHT22;3885;51.474;-2.576;2023-02-02T02:58:25;9.00;99.90
7686;DHT22;3885;51.474;-2.576;2023-02-02T03:01:01;8.90;99.90
7686;DHT22;3885;51.474;-2.576;2023-02-02T03:03:51;8.90;99.90
7686;DHT22;3885;51.474;-2.576;2023-02-02T03:06:22;8.90;99.90
7686;DHT22;3885;51.474;-2.576;2023-02-02T03:08:54;9.00;99.90
7686;DHT22;3885;51.474;-2.576;2023-02-02T03:11:24;8.90;99.90
7686;DHT22;3885;51.474;-2.576;2023-02-02T03:16:18;8.90;99.90
7686;DHT22;3885;51.474;-2.576;2023-02-02T03:18:46;9.00;99.90
7686;DHT22;3885;51.474;-2.576;2023-02-02T03:21:13;9.00;99.90
7686;DHT22;3885;51.474;-2.576;2023-02-02T03:23:40;9.00;99.90
7686;DHT22;3885;51.474;-2.576;2023-02-02T03:26:07;9.00;99.90
7686;DHT22;3885;51.474;-2.576;2023-02-02T03:28:35;9.10;99.90
7686;DHT22;3885;51.474;-2.576;2023-02-02T03:31:02;9.00;99.90
7686;DHT22;3885;51.474;-2.576;2023-02-02T03:33:30;9.00;99.90
7686;DHT22;3885;51.474;-2.576;2023-02-02T03:35:59;9.00;99.90
7686;DHT22;3885;51.474;-2.576;2023-02-02T03:38:26;9.00;99.90
7686;DHT22;3885;51.474;-2.576;2023-02-02T03:43:20;8.90;99.90
7686;DHT22;3885;51.474;-2.576;2023-02-02T03:45:53;8.90;99.90
7686;DHT22;3885;51.474;-2.576;2023-02-02T03:48:20;8.90;99.90
7686;DHT22;3885;51.474;-2.576;2023-02-02T03:50:47;8.90;99.90
7686;DHT22;3885;51.474;-2.576;2023-02-02T03:53:15;8.90;99.90
7686;DHT22;3885;51.474;-2.576;2023-02-02T03:55:42;8.90;99.90
7686;DHT22;3885;51.474;-2.576;2023-02-02T03:58:09;8.90;99.90
7686;DHT22;3885;51.474;-2.576;2023-02-02T04:00:36;8.90;99.90
7686;DHT22;3885;51.474;-2.576;2023-02-02T04:03:03;8.90;99.90
7686;DHT22;3885;51.474;-2.576;2023-02-02T04:05:30;8.80;99.90
7686;DHT22;3885;51.474;-2.576;2023-02-02T04:07:57;8.80;99.90
7686;DHT22;3885;51.474;-2.576;2023-02-02T04:10:25;8.80;99.90
7686;DHT22;3885;51.474;-2.576;2023-02-02T04:12:52;8.80;99.90
7686;DHT22;3885;51.474;-2.576;2023-02-02T04:15:19;8.80;99.90
7686;DHT22;3885;51.474;-2.576;2023-02-02T04:17:46;8.80;99.90
7686;DHT22;3885;51.474;-2.576;2023-02-02T04:20:13;8.70;99.90
7686;DHT22;3885;51.474;-2.576;2023-02-02T04:22:40;8.70;99.90
7686;DHT22;3885;51.474;-2.576;2023-02-02T04:25:07;8.80;99.90
7686;DHT22;3885;51.474;-2.576;2023-02-02T04:27:35;8.80;99.90
7686;DHT22;3885;51.474;-2.576;2023-02-02T04:30:03;8.80;99.90
7686;DHT22;3885;51.474;-2.576;2023-02-02T04:32:30;8.80;99.90
7686;DHT22;3885;51.474;-2.576;2023-02-02T04:34:57;8.70;99.90
7686;DHT22;3885;51.474;-2.576;2023-02-02T04:37:24;8.70;99.90
7686;DHT22;3885;51.474;-2.576;2023-02-02T04:39:51;8.80;99.90
7686;DHT22;3885;51.474;-2.576;2023-02-02T04:42:19;8.80;99.90
7686;DHT22;3885;51.474;-2.576;2023-02-02T04:44:48;8.80;99.90
7686;DHT22;3885;51.474;-2.576;2023-02-02T04:47:15;8.80;99.90
7686;DHT22;3885;51.474;-2.576;2023-02-02T04:54:37;8.90;99.90
7686;DHT22;3885;51.474;-2.576;2023-02-02T04:57:04;8.80;99.90
7686;DHT22;3885;51.474;-2.576;2023-02-02T04:59:31;8.80;99.90
7686;DHT22;3885;51.474;-2.576;2023-02-02T05:02:00;8.80;99.90
7686;DHT22;3885;51.474;-2.576;2023-02-02T05:04:27;8.80;99.90
7686;DHT22;3885;51.474;-2.576;2023-02-02T05:06:54;8.80;99.90
7686;DHT22;3885;51.474;-2.576;2023-02-02T05:09:21;8.80;99.90
7686;DHT22;3885;51.474;-2.576;2023-02-02T05:11:48;8.80;99.90
7686;DHT22;3885;51.474;-2.576;2023-02-02T05:14:15;8.80;99.90
7686;DHT22;3885;51.474;-2.576;2023-02-02T05:16:44;8.90;99.90
7686;DHT22;3885;51.474;-2.576;2023-02-02T05:19:12;8.90;99.90
7686;DHT22;3885;51.474;-2.576;2023-02-02T05:24:09;8.90;99.90
7686;DHT22;3885;51.474;-2.576;2023-02-02T05:26:37;8.90;99.90
7686;DHT22;3885;51.474;-2.576;2023-02-02T05:29:04;9.00;99.90
7686;DHT22;3885;51.474;-2.576;2023-02-02T05:31:34;9.00;99.90
7686;DHT22;3885;51.474;-2.576;2023-02-02T05:34:01;8.90;99.90
7686;DHT22;3885;51.474;-2.576;2023-02-02T05:36:29;8.90;99.90
7686;DHT22;3885;51.474;-2.576;2023-02-02T05:38:56;8.90;99.90
7686;DHT22;3885;51.474;-2.576;2023-02-02T05:41:23;8.90;99.90
7686;DHT22;3885;51.474;-2.576;2023-02-02T05:46:18;8.90;99.90
7686;DHT22;3885;51.474;-2.576;2023-02-02T05:48:45;9.00;99.90
7686;DHT22;3885;51.474;-2.576;2023-02-02T05:51:15;9.00;99.90
7686;DHT22;3885;51.474;-2.576;2023-02-02T05:53:45;9.00;99.90
7686;DHT22;3885;51.474;-2.576;2023-02-02T05:56:12;9.00;99.90
7686;DHT22;3885;51.474;-2.576;2023-02-02T05:58:40;9.00;99.90
7686;DHT22;3885;51.474;-2.576;2023-02-02T06:01:07;9.00;99.90
7686;DHT22;3885;51.474;-2.576;2023-02-02T06:03:35;9.00;99.90
7686;DHT22;3885;51.474;-2.576;2023-02-02T06:06:02;9.00;99.90
7686;DHT22;3885;51.474;-2.576;2023-02-02T06:08:29;9.00;99.90
7686;DHT22;3885;51.474;-2.576;2023-02-02T06:10:57;9.00;99.90
7686;DHT22;3885;51.474;-2.576;2023-02-02T06:13:24;9.00;99.90
7686;DHT22;3885;51.474;-2.576;2023-02-02T06:18:18;9.00;99.90
7686;DHT22;3885;51.474;-2.576;2023-02-02T06:20:45;9.00;99.90
7686;DHT22;3885;51.474;-2.576;2023-02-02T06:23:12;9.00;99.90
7686;DHT22;3885;51.474;-2.576;2023-02-02T06:25:39;9.00;99.90
7686;DHT22;3885;51.474;-2.576;2023-02-02T06:28:07;9.00;99.90
7686;DHT22;3885;51.474;-2.576;2023-02-02T06:30:34;9.00;99.90
7686;DHT22;3885;51.474;-2.576;2023-02-02T06:33:01;9.00;99.90
7686;DHT22;3885;51.474;-2.576;2023-02-02T06:35:29;9.10;99.90
7686;DHT22;3885;51.474;-2.576;2023-02-02T06:37:56;9.00;99.90
7686;DHT22;3885;51.474;-2.576;2023-02-02T06:40:23;9.00;99.90
7686;DHT22;3885;51.474;-2.576;2023-02-02T06:42:55;8.90;99.90
7686;DHT22;3885;51.474;-2.576;2023-02-02T06:45:23;9.00;99.90
7686;DHT22;3885;51.474;-2.576;2023-02-02T06:47:51;9.00;99.90
7686;DHT22;3885;51.474;-2.576;2023-02-02T06:50:18;9.00;99.90
7686;DHT22;3885;51.474;-2.576;2023-02-02T06:55:14;9.00;99.90
7686;DHT22;3885;51.474;-2.576;2023-02-02T07:05:05;9.10;99.90
7686;DHT22;3885;51.474;-2.576;2023-02-02T07:07:32;9.10;99.90
7686;DHT22;3885;51.474;-2.576;2023-02-02T07:14:54;9.20;99.90
7686;DHT22;3885;51.474;-2.576;2023-02-02T07:17:21;9.20;99.90
7686;DHT22;3885;51.474;-2.576;2023-02-02T07:19:49;9.20;99.90
7686;DHT22;3885;51.474;-2.576;2023-02-02T07:22:16;9.10;99.90
7686;DHT22;3885;51.474;-2.576;2023-02-02T07:24:43;9.10;99.90
7686;DHT22;3885;51.474;-2.576;2023-02-02T07:27:10;9.10;99.90
7686;DHT22;3885;51.474;-2.576;2023-02-02T07:29:36;9.10;99.90
7686;DHT22;3885;51.474;-2.576;2023-02-02T07:32:04;9.10;99.90
7686;DHT22;3885;51.474;-2.576;2023-02-02T07:34:31;9.10;99.90
7686;DHT22;3885;51.474;-2.576;2023-02-02T07:36:59;9.20;99.90
7686;DHT22;3885;51.474;-2.576;2023-02-02T07:39:26;9.20;99.90
7686;DHT22;3885;51.474;-2.576;2023-02-02T07:41:53;9.20;99.90
7686;DHT22;3885;51.474;-2.576;2023-02-02T07:46:47;9.30;99.90
7686;DHT22;3885;51.474;-2.576;2023-02-02T07:49:15;9.30;99.90
7686;DHT22;3885;51.474;-2.576;2023-02-02T07:51:42;9.30;99.90
7686;DHT22;3885;51.474;-2.576;2023-02-02T07:54:11;9.40;99.90
7686;DHT22;3885;51.474;-2.576;2023-02-02T07:59:05;9.40;99.90
7686;DHT22;3885;51.474;-2.576;2023-02-02T08:01:32;9.40;99.90
7686;DHT22;3885;51.474;-2.576;2023-02-02T08:03:59;9.40;99.90
7686;DHT22;3885;51.474;-2.576;2023-02-02T08:06:29;9.50;99.90
7686;DHT22;3885;51.474;-2.576;2023-02-02T08:11:26;9.40;99.90
7686;DHT22;3885;51.474;-2.576;2023-02-02T08:16:23;9.40;99.90
7686;DHT22;3885;51.474;-2.576;2023-02-02T08:18:50;9.40;99.90
7686;DHT22;3885;51.474;-2.576;2023-02-02T08:21:18;9.40;99.90
7686;DHT22;3885;51.474;-2.576;2023-02-02T08:23:46;9.50;99.90
7686;DHT22;3885;51.474;-2.576;2023-02-02T08:26:15;9.50;99.90
7686;DHT22;3885;51.474;-2.576;2023-02-02T08:28:45;9.50;99.90
7686;DHT22;3885;51.474;-2.576;2023-02-02T08:31:14;9.50;99.90
7686;DHT22;3885;51.474;-2.576;2023-02-02T08:33:42;9.60;99.90
7686;DHT22;3885;51.474;-2.576;2023-02-02T08:36:10;9.70;99.90
7686;DHT22;3885;51.474;-2.576;2023-02-02T08:38:38;9.60;99.90
7686;DHT22;3885;51.474;-2.576;2023-02-02T08:43:33;9.70;99.90
7686;DHT22;3885;51.474;-2.576;2023-02-02T08:46:01;9.70;99.90
7686;DHT22;3885;51.474;-2.576;2023-02-02T08:50:57;9.70;99.90
7686;DHT22;3885;51.474;-2.576;2023-02-02T08:53:24;9.70;99.90
7686;DHT22;3885;51.474;-2.576;2023-02-02T08:55:57;9.70;99.90
7686;DHT22;3885;51.474;-2.576;2023-02-02T08:58:24;9.70;99.90
7686;DHT22;3885;51.474;-2.576;2023-02-02T09:03:20;9.80;99.90
7686;DHT22;3885;51.474;-2.576;2023-02-02T09:05:47;9.80;99.90
7686;DHT22;3885;51.474;-2.576;2023-02-02T09:08:14;9.80;99.90
7686;DHT22;3885;51.474;-2.576;2023-02-02T09:10:41;9.90;99.90
7686;DHT22;3885;51.474;-2.576;2023-02-02T09:22:59;9.90;99.90
7686;DHT22;3885;51.474;-2.576;2023-02-02T09:25:26;10.00;99.90
7686;DHT22;3885;51.474;-2.576;2023-02-02T09:27:53;9.90;99.90
7686;DHT22;3885;51.474;-2.576;2023-02-02T09:30:20;10.00;99.90
7686;DHT22;3885;51.474;-2.576;2023-02-02T09:32:48;10.00;99.90
7686;DHT22;3885;51.474;-2.576;2023-02-02T09:35:16;10.00;99.90
7686;DHT22;3885;51.474;-2.576;2023-02-02T09:37:44;10.00;99.90
7686;DHT22;3885;51.474;-2.576;2023-02-02T09:42:52;10.00;99.90
7686;DHT22;3885;51.474;-2.576;2023-02-02T09:45:26;10.00;99.90
7686;DHT22;3885;51.474;-2.576;2023-02-02T09:47:58;10.10;99.90
7686;DHT22;3885;51.474;-2.576;2023-02-02T09:50:40;10.10;99.90
7686;DHT22;3885;51.474;-2.576;2023-02-02T09:53:14;10.20;99.90
7686;DHT22;3885;51.474;-2.576;2023-02-02T09:55:45;10.20;99.90
7686;DHT22;3885;51.474;-2.576;2023-02-02T09:58:17;10.20;99.90
7686;DHT22;3885;51.474;-2.576;2023-02-02T10:03:16;10.30;99.90
7686;DHT22;3885;51.474;-2.576;2023-02-02T10:05:48;10.20;99.90
7686;DHT22;3885;51.474;-2.576;2023-02-02T10:08:25;10.20;99.90
7686;DHT22;3885;51.474;-2.576;2023-02-02T10:10:54;10.30;99.90
7686;DHT22;3885;51.474;-2.576;2023-02-02T10:13:26;10.30;99.90
7686;DHT22;3885;51.474;-2.576;2023-02-02T10:15:59;10.30;99.90
7686;DHT22;3885;51.474;-2.576;2023-02-02T10:18:36;10.40;99.90
7686;DHT22;3885;51.474;-2.576;2023-02-02T10:21:06;10.40;99.90
7686;DHT22;3885;51.474;-2.576;2023-02-02T10:26:12;10.40;99.90
7686;DHT22;3885;51.474;-2.576;2023-02-02T10:31:17;10.40;99.90
7686;DHT22;3885;51.474;-2.576;2023-02-02T10:33:53;10.40;99.90
7686;DHT22;3885;51.474;-2.576;2023-02-02T10:41:36;10.40;99.90
7686;DHT22;3885;51.474;-2.576;2023-02-02T10:44:16;10.50;99.90
7686;DHT22;3885;51.474;-2.576;2023-02-02T10:46:49;10.60;99.90
7686;DHT22;3885;51.474;-2.576;2023-02-02T10:49:25;10.70;99.90
7686;DHT22;3885;51.474;-2.576;2023-02-02T10:51:56;10.70;99.90
7686;DHT22;3885;51.474;-2.576;2023-02-02T10:54:49;10.60;99.90
7686;DHT22;3885;51.474;-2.576;2023-02-02T10:57:25;10.70;99.90
7686;DHT22;3885;51.474;-2.576;2023-02-02T11:02:27;10.60;99.90
7686;DHT22;3885;51.474;-2.576;2023-02-02T11:07:35;10.60;99.90
7686;DHT22;3885;51.474;-2.576;2023-02-02T11:10:04;10.60;99.90
7686;DHT22;3885;51.474;-2.576;2023-02-02T11:12:33;10.60;99.90
7686;DHT22;3885;51.474;-2.576;2023-02-02T11:15:03;10.60;99.90
7686;DHT22;3885;51.474;-2.576;2023-02-02T11:17:31;10.60;99.90
7686;DHT22;3885;51.474;-2.576;2023-02-02T11:19:58;10.60;99.90
7686;DHT22;3885;51.474;-2.576;2023-02-02T11:22:29;10.70;99.90
7686;DHT22;3885;51.474;-2.576;2023-02-02T11:25:00;10.80;99.90
7686;DHT22;3885;51.474;-2.576;2023-02-02T11:27:31;10.70;99.90
7686;DHT22;3885;51.474;-2.576;2023-02-02T11:30:00;10.80;99.90
7686;DHT22;3885;51.474;-2.576;2023-02-02T11:32:35;10.80;99.90
7686;DHT22;3885;51.474;-2.576;2023-02-02T11:35:29;10.90;99.90
7686;DHT22;3885;51.474;-2.576;2023-02-02T11:40:38;11.00;99.90
7686;DHT22;3885;51.474;-2.576;2023-02-02T11:43:16;11.00;99.90
7686;DHT22;3885;51.474;-2.576;2023-02-02T11:45:46;11.00;99.90
7686;DHT22;3885;51.474;-2.576;2023-02-02T11:48:17;11.00;99.90
7686;DHT22;3885;51.474;-2.576;2023-02-02T11:50:47;11.00;99.90
7686;DHT22;3885;51.474;-2.576;2023-02-02T11:53:23;10.90;99.90
7686;DHT22;3885;51.474;-2.576;2023-02-02T11:55:51;11.00;99.90
7686;DHT22;3885;51.474;-2.576;2023-02-02T11:58:22;11.00;99.90
7686;DHT22;3885;51.474;-2.576;2023-02-02T12:00:57;11.10;99.90
7686;DHT22;3885;51.474;-2.576;2023-02-02T12:03:33;11.00;99.90
7686;DHT22;3885;51.474;-2.576;2023-02-02T12:06:17;11.10;99.90
7686;DHT22;3885;51.474;-2.576;2023-02-02T12:08:44;11.20;99.90
7686;DHT22;3885;51.474;-2.576;2023-02-02T12:11:20;11.30;99.90
7686;DHT22;3885;51.474;-2.576;2023-02-02T12:24:29;11.50;99.90
7686;DHT22;3885;51.474;-2.576;2023-02-02T12:27:11;11.40;99.90
7686;DHT22;3885;51.474;-2.576;2023-02-02T12:29:51;11.40;99.90
7686;DHT22;3885;51.474;-2.576;2023-02-02T12:32:32;11.40;99.90
7686;DHT22;3885;51.474;-2.576;2023-02-02T12:38:05;11.40;99.90
7686;DHT22;3885;51.474;-2.576;2023-02-02T12:40:50;11.40;99.90
7686;DHT22;3885;51.474;-2.576;2023-02-02T12:43:32;11.40;99.90
7686;DHT22;3885;51.474;-2.576;2023-02-02T12:46:15;11.40;99.90
7686;DHT22;3885;51.474;-2.576;2023-02-02T12:51:58;11.40;99.90
7686;DHT22;3885;51.474;-2.576;2023-02-02T12:54:50;11.40;99.90
7686;DHT22;3885;51.474;-2.576;2023-02-02T12:57:25;11.40;99.90
7686;DHT22;3885;51.474;-2.576;2023-02-02T13:00:28;11.30;99.90
7686;DHT22;3885;51.474;-2.576;2023-02-02T13:03:12;11.30;99.90
7686;DHT22;3885;51.474;-2.576;2023-02-02T13:05:52;11.30;99.90
7686;DHT22;3885;51.474;-2.576;2023-02-02T13:08:25;11.30;99.90
7686;DHT22;3885;51.474;-2.576;2023-02-02T13:10:58;11.30;99.90
7686;DHT22;3885;51.474;-2.576;2023-02-02T13:13:31;11.20;99.90
7686;DHT22;3885;51.474;-2.576;2023-02-02T13:26:03;11.30;99.90
7686;DHT22;3885;51.474;-2.576;2023-02-02T13:31:06;11.30;99.90
7686;DHT22;3885;51.474;-2.576;2023-02-02T13:33:37;11.30;99.90
7686;DHT22;3885;51.474;-2.576;2023-02-02T13:36:08;11.20;99.90
7686;DHT22;3885;51.474;-2.576;2023-02-02T13:41:09;11.10;99.90
7686;DHT22;3885;51.474;-2.576;2023-02-02T13:43:44;11.20;99.90
7686;DHT22;3885;51.474;-2.576;2023-02-02T13:46:24;11.20;99.90
7686;DHT22;3885;51.474;-2.576;2023-02-02T13:49:01;11.10;99.90
7686;DHT22;3885;51.474;-2.576;2023-02-02T13:51:46;11.10;99.90
7686;DHT22;3885;51.474;-2.576;2023-02-02T14:00:13;11.00;99.90
7686;DHT22;3885;51.474;-2.576;2023-02-02T14:02:44;11.00;99.90
7686;DHT22;3885;51.474;-2.576;2023-02-02T14:05:22;11.00;99.90
7686;DHT22;3885;51.474;-2.576;2023-02-02T14:07:59;11.00;99.90
7686;DHT22;3885;51.474;-2.576;2023-02-02T14:10:31;11.00;99.90
7686;DHT22;3885;51.474;-2.576;2023-02-02T14:13:09;11.00;99.90
7686;DHT22;3885;51.474;-2.576;2023-02-02T14:15:54;10.90;99.90
7686;DHT22;3885;51.474;-2.576;2023-02-02T14:18:50;10.90;99.90
7686;DHT22;3885;51.474;-2.576;2023-02-02T14:24:43;10.80;99.90
7686;DHT22;3885;51.474;-2.576;2023-02-02T14:27:53;10.80;99.90
7686;DHT22;3885;51.474;-2.576;2023-02-02T14:35:58;10.90;99.90
7686;DHT22;3885;51.474;-2.576;2023-02-02T14:44:10;10.90;99.90
7686;DHT22;3885;51.474;-2.576;2023-02-02T14:46:38;10.80;99.90
7686;DHT22;3885;51.474;-2.576;2023-02-02T14:49:14;10.80;99.90
7686;DHT22;3885;51.474;-2.576;2023-02-02T14:51:52;10.70;99.90
7686;DHT22;3885;51.474;-2.576;2023-02-02T14:54:27;10.70;99.90
7686;DHT22;3885;51.474;-2.576;2023-02-02T14:56:59;10.70;99.90
7686;DHT22;3885;51.474;-2.576;2023-02-02T14:59:29;10.70;99.90
7686;DHT22;3885;51.474;-2.576;2023-02-02T15:04:34;10.60;99.90
7686;DHT22;3885;51.474;-2.576;2023-02-02T15:07:35;10.50;99.90
7686;DHT22;3885;51.474;-2.576;2023-02-02T15:10:07;10.50;99.90
7686;DHT22;3885;51.474;-2.576;2023-02-02T15:12:37;10.50;99.90
7686;DHT22;3885;51.474;-2.576;2023-02-02T15:15:19;10.40;99.90
7686;DHT22;3885;51.474;-2.576;2023-02-02T15:18:03;10.40;99.90
7686;DHT22;3885;51.474;-2.576;2023-02-02T15:20:34;10.40;99.90
7686;DHT22;3885;51.474;-2.576;2023-02-02T15:23:05;10.40;99.90
7686;DHT22;3885;51.474;-2.576;2023-02-02T15:25:40;10.40;99.90
7686;DHT22;3885;51.474;-2.576;2023-02-02T15:30:46;10.40;99.90
7686;DHT22;3885;51.474;-2.576;2023-02-02T15:33:23;10.40;99.90
7686;DHT22;3885;51.474;-2.576;2023-02-02T15:35:53;10.40;99.90
7686;DHT22;3885;51.474;-2.576;2023-02-02T15:38:23;10.40;99.90
7686;DHT22;3885;51.474;-2.576;2023-02-02T15:43:26;10.30;99.90
7686;DHT22;3885;51.474;-2.576;2023-02-02T15:45:54;10.30;99.90
7686;DHT22;3885;51.474;-2.576;2023-02-02T15:48:29;10.20;99.90
7686;DHT22;3885;51.474;-2.576;2023-02-02T15:53:27;10.20;99.90
7686;DHT22;3885;51.474;-2.576;2023-02-02T15:55:56;10.20;99.90
7686;DHT22;3885;51.474;-2.576;2023-02-02T16:01:02;10.20;99.90
7686;DHT22;3885;51.474;-2.576;2023-02-02T16:03:35;10.20;99.90
7686;DHT22;3885;51.474;-2.576;2023-02-02T16:06:05;10.20;99.90
7686;DHT22;3885;51.474;-2.576;2023-02-02T16:08:35;10.10;99.90
7686;DHT22;3885;51.474;-2.576;2023-02-02T16:11:09;10.00;99.90
7686;DHT22;3885;51.474;-2.576;2023-02-02T16:16:18;10.10;99.90
7686;DHT22;3885;51.474;-2.576;2023-02-02T16:18:46;10.10;99.90
7686;DHT22;3885;51.474;-2.576;2023-02-02T16:21:22;10.10;99.90
7686;DHT22;3885;51.474;-2.576;2023-02-02T16:23:50;10.00;99.90
7686;DHT22;3885;51.474;-2.576;2023-02-02T16:26:24;10.00;99.90
7686;DHT22;3885;51.474;-2.576;2023-02-02T16:28:53;10.00;99.90
7686;DHT22;3885;51.474;-2.576;2023-02-02T16:31:20;10.00;99.90
7686;DHT22;3885;51.474;-2.576;2023-02-02T16:33:47;10.00;99.90
7686;DHT22;3885;51.474;-2.576;2023-02-02T16:36:17;10.00;99.90
7686;DHT22;3885;51.474;-2.576;2023-02-02T16:38:44;10.00;99.90
7686;DHT22;3885;51.474;-2.576;2023-02-02T16:43:41;9.90;99.90
7686;DHT22;3885;51.474;-2.576;2023-02-02T16:46:10;9.90;99.90
7686;DHT22;3885;51.474;-2.576;2023-02-02T16:48:38;9.90;99.90
7686;DHT22;3885;51.474;-2.576;2023-02-02T16:51:22;9.90;99.90
7686;DHT22;3885;51.474;-2.576;2023-02-02T16:54:01;9.80;99.90
7686;DHT22;3885;51.474;-2.576;2023-02-02T16:56:40;9.90;99.90
7686;DHT22;3885;51.474;-2.576;2023-02-02T16:59:16;9.80;99.90
7686;DHT22;3885;51.474;-2.576;2023-02-02T17:01:47;9.80;99.90
7686;DHT22;3885;51.474;-2.576;2023-02-02T17:04:19;9.90;99.90
7686;DHT22;3885;51.474;-2.576;2023-02-02T17:06:47;9.90;99.90
7686;DHT22;3885;51.474;-2.576;2023-02-02T17:11:59;9.90;99.90
7686;DHT22;3885;51.474;-2.576;2023-02-02T17:14:32;9.80;99.90
7686;DHT22;3885;51.474;-2.576;2023-02-02T17:17:00;9.80;99.90
7686;DHT22;3885;51.474;-2.576;2023-02-02T17:19:29;9.80;99.90
7686;DHT22;3885;51.474;-2.576;2023-02-02T17:21:58;9.70;99.90
7686;DHT22;3885;51.474;-2.576;2023-02-02T17:24:26;9.80;99.90
7686;DHT22;3885;51.474;-2.576;2023-02-02T17:26:53;9.70;99.90
7686;DHT22;3885;51.474;-2.576;2023-02-02T17:29:20;9.70;99.90
7686;DHT22;3885;51.474;-2.576;2023-02-02T17:31:49;9.70;99.90
7686;DHT22;3885;51.474;-2.576;2023-02-02T17:34:18;9.70;99.90
7686;DHT22;3885;51.474;-2.576;2023-02-02T17:36:45;9.70;99.90
7686;DHT22;3885;51.474;-2.576;2023-02-02T17:39:12;9.70;99.90
7686;DHT22;3885;51.474;-2.576;2023-02-02T17:41:39;9.70;99.90
7686;DHT22;3885;51.474;-2.576;2023-02-02T17:44:06;9.70;99.90
7686;DHT22;3885;51.474;-2.576;2023-02-02T17:46:34;9.70;99.90
7686;DHT22;3885;51.474;-2.576;2023-02-02T17:49:02;9.70;99.90
7686;DHT22;3885;51.474;-2.576;2023-02-02T17:51:29;9.80;99.90
7686;DHT22;3885;51.474;-2.576;2023-02-02T17:53:57;9.70;99.90
7686;DHT22;3885;51.474;-2.576;2023-02-02T17:58:53;9.70;99.90
7686;DHT22;3885;51.474;-2.576;2023-02-02T18:01:19;9.80;99.90
7686;DHT22;3885;51.474;-2.576;2023-02-02T18:03:47;9.70;99.90
7686;DHT22;3885;51.474;-2.576;2023-02-02T18:08:42;9.70;99.90
7686;DHT22;3885;51.474;-2.576;2023-02-02T18:11:13;9.70;99.90
7686;DHT22;3885;51.474;-2.576;2023-02-02T18:13:41;9.60;99.90
7686;DHT22;3885;51.474;-2.576;2023-02-02T18:18:36;9.70;99.90
7686;DHT22;3885;51.474;-2.576;2023-02-02T18:21:07;9.60;99.90
7686;DHT22;3885;51.474;-2.576;2023-02-02T18:23:35;9.60;99.90
7686;DHT22;3885;51.474;-2.576;2023-02-02T18:26:10;9.60;99.90
7686;DHT22;3885;51.474;-2.576;2023-02-02T18:28:37;9.60;99.90
7686;DHT22;3885;51.474;-2.576;2023-02-02T18:31:08;9.60;99.90
7686;DHT22;3885;51.474;-2.576;2023-02-02T18:41:01;9.60;99.90
7686;DHT22;3885;51.474;-2.576;2023-02-02T18:43:28;9.60;99.90
7686;DHT22;3885;51.474;-2.576;2023-02-02T18:48:23;9.60;99.90
7686;DHT22;3885;51.474;-2.576;2023-02-02T18:53:17;9.60;99.90
7686;DHT22;3885;51.474;-2.576;2023-02-02T18:55:44;9.60;99.90
7686;DHT22;3885;51.474;-2.576;2023-02-02T18:58:13;9.50;99.90
7686;DHT22;3885;51.474;-2.576;2023-02-02T19:03:07;9.60;99.90
7686;DHT22;3885;51.474;-2.576;2023-02-02T19:05:35;9.60;99.90
7686;DHT22;3885;51.474;-2.576;2023-02-02T19:08:19;9.60;99.90
7686;DHT22;3885;51.474;-2.576;2023-02-02T19:10:46;9.50;99.90
7686;DHT22;3885;51.474;-2.576;2023-02-02T19:13:16;9.50;99.90
7686;DHT22;3885;51.474;-2.576;2023-02-02T19:15:45;9.50;99.90
7686;DHT22;3885;51.474;-2.576;2023-02-02T19:18:14;9.50;99.90
7686;DHT22;3885;51.474;-2.576;2023-02-02T19:20:42;9.60;99.90
7686;DHT22;3885;51.474;-2.576;2023-02-02T19:25:39;9.60;99.90
7686;DHT22;3885;51.474;-2.576;2023-02-02T19:28:17;9.60;99.90
7686;DHT22;3885;51.474;-2.576;2023-02-02T19:30:46;9.60;99.90
7686;DHT22;3885;51.474;-2.576;2023-02-02T19:33:14;9.60;99.90
7686;DHT22;3885;51.474;-2.576;2023-02-02T19:35:44;9.60;99.90
7686;DHT22;3885;51.474;-2.576;2023-02-02T19:38:13;9.60;99.90